sensor_id;sensor_type;location;lat;lon;timestamp;pressure;altitude;pressure_sealevel;temperature;humidity
19795;BME280;10057;59.402;17.866;2023-07-30T00:02:21;100038.81;;;18.33;58.52
19795;BME280;10057;59.402;17.866;2023-07-30T00:04:47;100043.31;;;18.33;58.54
19795;BME280;10057;59.402;17.866;2023-07-30T00:07:14;100037.22;;;18.31;58.50
19795;BME280;10057;59.402;17.866;2023-07-30T00:09:41;100045.41;;;18.29;58.43
19795;BME280;10057;59.402;17.866;2023-07-30T00:12:09;100039.16;;;18.29;58.65
19795;BME280;10057;59.402;17.866;2023-07-30T00:14:36;100041.97;;;18.27;58.51
19795;BME280;10057;59.402;17.866;2023-07-30T00:17:03;100038.53;;;18.25;58.55
19795;BME280;10057;59.402;17.866;2023-07-30T00:19:30;100035.16;;;18.23;58.39
19795;BME280;10057;59.402;17.866;2023-07-30T00:21:57;100038.53;;;18.25;58.73
19795;BME280;10057;59.402;17.866;2023-07-30T00:24:23;100046.13;;;18.20;58.75
19795;BME280;10057;59.402;17.866;2023-07-30T00:26:50;100047.81;;;18.21;58.72
19795;BME280;10057;59.402;17.866;2023-07-30T00:29:17;100044.44;;;18.19;58.74
19795;BME280;10057;59.402;17.866;2023-07-30T00:31:44;100036.72;;;18.14;58.77
19795;BME280;10057;59.402;17.866;2023-07-30T00:34:11;100035.88;;;18.14;58.80
19795;BME280;10057;59.402;17.866;2023-07-30T00:36:38;100039.31;;;18.16;58.82
19795;BME280;10057;59.402;17.866;2023-07-30T00:39:04;100036.72;;;18.14;58.80
19795;BME280;10057;59.402;17.866;2023-07-30T00:41:31;100035.78;;;18.15;58.97
19795;BME280;10057;59.402;17.866;2023-07-30T00:43:58;100037.72;;;18.13;58.86
19795;BME280;10057;59.402;17.866;2023-07-30T00:46:25;100027.34;;;18.09;58.71
19795;BME280;10057;59.402;17.866;2023-07-30T00:48:52;100038.69;;;18.12;58.79
19795;BME280;10057;59.402;17.866;2023-07-30T00:51:19;100031.72;;;18.10;58.78
19795;BME280;10057;59.402;17.866;2023-07-30T00:53:47;100035.50;;;18.07;58.98
19795;BME280;10057;59.402;17.866;2023-07-30T00:56:14;100031.13;;;18.06;58.74
19795;BME280;10057;59.402;17.866;2023-07-30T00:58:43;100025.63;;;18.08;58.89
19795;BME280;10057;59.402;17.866;2023-07-30T01:01:11;100023.19;;;18.05;58.85
19795;BME280;10057;59.402;17.866;2023-07-30T01:03:39;100021.38;;;18.05;58.94
19795;BME280;10057;59.402;17.866;2023-07-30T01:06:06;100023.31;;;18.03;58.93
19795;BME280;10057;59.402;17.866;2023-07-30T01:08:33;100020.03;;;17.99;58.75
19795;BME280;10057;59.402;17.866;2023-07-30T01:11:01;100003.19;;;17.97;58.89
19795;BME280;10057;59.402;17.866;2023-07-30T01:13:28;100013.91;;;17.97;59.02
19795;BME280;10057;59.402;17.866;2023-07-30T01:15:56;100023.78;;;17.97;58.81
19795;BME280;10057;59.402;17.866;2023-07-30T01:18:22;100024.03;;;17.94;58.87
19795;BME280;10057;59.402;17.866;2023-07-30T01:20:53;100026.84;;;17.92;58.83
19795;BME280;10057;59.402;17.866;2023-07-30T01:23:19;100029.78;;;17.89;58.92
19795;BME280;10057;59.402;17.866;2023-07-30T01:25:48;100023.66;;;17.87;59.11
19795;BME280;10057;59.402;17.866;2023-07-30T01:28:21;100018.53;;;17.84;59.28
19795;BME280;10057;59.402;17.866;2023-07-30T01:30:48;100024.88;;;17.83;59.12
19795;BME280;10057;59.402;17.866;2023-07-30T01:33:16;100029.53;;;17.81;59.19
19795;BME280;10057;59.402;17.866;2023-07-30T01:35:43;100023.44;;;17.79;59.26
19795;BME280;10057;59.402;17.866;2023-07-30T01:38:10;100027.81;;;17.80;59.20
19795;BME280;10057;59.402;17.866;2023-07-30T01:40:38;100025.25;;;17.79;59.06
19795;BME280;10057;59.402;17.866;2023-07-30T01:43:04;100026.44;;;17.74;59.21
19795;BME280;10057;59.402;17.866;2023-07-30T01:45:31;100031.72;;;17.76;59.24
19795;BME280;10057;59.402;17.866;2023-07-30T01:47:58;100036.19;;;17.75;59.24
19795;BME280;10057;59.402;17.866;2023-07-30T01:50:25;100032.56;;;17.76;59.09
19795;BME280;10057;59.402;17.866;2023-07-30T01:52:51;100032.66;;;17.75;59.11
19795;BME280;10057;59.402;17.866;2023-07-30T01:55:18;100034.59;;;17.73;59.42
19795;BME280;10057;59.402;17.866;2023-07-30T01:57:45;100028.50;;;17.71;59.35
19795;BME280;10057;59.402;17.866;2023-07-30T02:00:12;100028.50;;;17.71;59.28
19795;BME280;10057;59.402;17.866;2023-07-30T02:02:38;100030.31;;;17.70;59.19
19795;BME280;10057;59.402;17.866;2023-07-30T02:05:05;100028.75;;;17.68;59.27
19795;BME280;10057;59.402;17.866;2023-07-30T02:07:32;100023.38;;;17.68;59.27
19795;BME280;10057;59.402;17.866;2023-07-30T02:09:59;100018.97;;;17.67;59.22
19795;BME280;10057;59.402;17.866;2023-07-30T02:12:26;100025.09;;;17.69;59.25
19795;BME280;10057;59.402;17.866;2023-07-30T02:14:53;100022.50;;;17.67;59.33
19795;BME280;10057;59.402;17.866;2023-07-30T02:17:20;100029.00;;;17.65;59.42
19795;BME280;10057;59.402;17.866;2023-07-30T02:19:46;100028.25;;;17.63;59.34
19795;BME280;10057;59.402;17.866;2023-07-30T02:22:13;100029.22;;;17.62;59.56
19795;BME280;10057;59.402;17.866;2023-07-30T02:24:40;100025.56;;;17.63;59.55
19795;BME280;10057;59.402;17.866;2023-07-30T02:27:07;100023.72;;;17.63;59.74
19795;BME280;10057;59.402;17.866;2023-07-30T02:29:33;100027.25;;;17.64;59.47
19795;BME280;10057;59.402;17.866;2023-07-30T02:32:00;100034.34;;;17.65;59.56
19795;BME280;10057;59.402;17.866;2023-07-30T02:34:27;100034.59;;;17.62;59.54
19795;BME280;10057;59.402;17.866;2023-07-30T02:36:54;100038.13;;;17.62;59.39
19795;BME280;10057;59.402;17.866;2023-07-30T02:39:21;100033.13;;;17.58;59.61
19795;BME280;10057;59.402;17.866;2023-07-30T02:41:47;100033.13;;;17.58;59.57
19795;BME280;10057;59.402;17.866;2023-07-30T02:44:14;100036.66;;;17.58;59.55
19795;BME280;10057;59.402;17.866;2023-07-30T02:46:41;100041.78;;;17.61;59.51
19795;BME280;10057;59.402;17.866;2023-07-30T02:49:08;100047.25;;;17.60;59.52
19795;BME280;10057;59.402;17.866;2023-07-30T02:51:35;100040.19;;;17.59;59.73
19795;BME280;10057;59.402;17.866;2023-07-30T02:54:07;100036.53;;;17.60;59.64
19795;BME280;10057;59.402;17.866;2023-07-30T02:56:34;100041.88;;;17.60;59.51
19795;BME280;10057;59.402;17.866;2023-07-30T02:59:01;100041.03;;;17.59;59.77
19795;BME280;10057;59.402;17.866;2023-07-30T03:01:27;100047.25;;;17.60;59.75
19795;BME280;10057;59.402;17.866;2023-07-30T03:03:54;100035.44;;;17.62;59.69
19795;BME280;10057;59.402;17.866;2023-07-30T03:06:21;100040.81;;;17.62;60.01
19795;BME280;10057;59.402;17.866;2023-07-30T03:08:48;100028.38;;;17.61;60.06
19795;BME280;10057;59.402;17.866;2023-07-30T03:11:15;100037.03;;;17.65;59.90
19795;BME280;10057;59.402;17.866;2023-07-30T03:13:42;100033.50;;;17.64;59.91
19795;BME280;10057;59.402;17.866;2023-07-30T03:16:09;100037.97;;;17.64;60.23
19795;BME280;10057;59.402;17.866;2023-07-30T03:18:36;100030.91;;;17.63;60.01
19795;BME280;10057;59.402;17.866;2023-07-30T03:21:02;100037.03;;;17.65;60.22
19795;BME280;10057;59.402;17.866;2023-07-30T03:23:30;100024.56;;;17.64;60.24
19795;BME280;10057;59.402;17.866;2023-07-30T03:25:58;100036.78;;;17.68;60.52
19795;BME280;10057;59.402;17.866;2023-07-30T03:28:26;100026.91;;;17.68;60.52
19795;BME280;10057;59.402;17.866;2023-07-30T03:30:53;100030.44;;;17.69;60.46
19795;BME280;10057;59.402;17.866;2023-07-30T03:33:20;100040.09;;;17.71;60.53
19795;BME280;10057;59.402;17.866;2023-07-30T03:35:47;100038.38;;;17.70;60.71
19795;BME280;10057;59.402;17.866;2023-07-30T03:38:13;100043.72;;;17.70;60.69
19795;BME280;10057;59.402;17.866;2023-07-30T03:40:40;100046.31;;;17.72;60.80
19795;BME280;10057;59.402;17.866;2023-07-30T03:43:07;100049.59;;;17.75;60.83
19795;BME280;10057;59.402;17.866;2023-07-30T03:45:34;100052.09;;;17.79;60.97
19795;BME280;10057;59.402;17.866;2023-07-30T03:48:00;100048.31;;;17.81;60.98
19795;BME280;10057;59.402;17.866;2023-07-30T03:50:27;100048.03;;;17.84;60.95
19795;BME280;10057;59.402;17.866;2023-07-30T03:52:54;100048.78;;;17.86;61.05
19795;BME280;10057;59.402;17.866;2023-07-30T03:55:21;100055.00;;;17.87;61.06
19795;BME280;10057;59.402;17.866;2023-07-30T03:57:47;100044.28;;;17.87;61.07
19795;BME280;10057;59.402;17.866;2023-07-30T04:00:14;100046.84;;;17.88;61.21
19795;BME280;10057;59.402;17.866;2023-07-30T04:02:41;100051.94;;;17.91;61.41
19795;BME280;10057;59.402;17.866;2023-07-30T04:05:08;100049.16;;;17.93;61.65
19795;BME280;10057;59.402;17.866;2023-07-30T04:07:34;100057.09;;;17.94;61.61
19795;BME280;10057;59.402;17.866;2023-07-30T04:10:04;100057.09;;;17.94;61.75
19795;BME280;10057;59.402;17.866;2023-07-30T04:12:31;100056.13;;;17.95;61.86
19795;BME280;10057;59.402;17.866;2023-07-30T04:14:57;100048.09;;;17.95;61.83
19795;BME280;10057;59.402;17.866;2023-07-30T04:17:24;100053.22;;;17.98;62.12
19795;BME280;10057;59.402;17.866;2023-07-30T04:19:51;100053.22;;;17.98;62.02
19795;BME280;10057;59.402;17.866;2023-07-30T04:22:17;100050.16;;;18.03;62.32
19795;BME280;10057;59.402;17.866;2023-07-30T04:24:44;100047.47;;;18.03;62.21
19795;BME280;10057;59.402;17.866;2023-07-30T04:27:11;100054.44;;;18.06;62.20
19795;BME280;10057;59.402;17.866;2023-07-30T04:29:38;100055.13;;;18.08;62.42
19795;BME280;10057;59.402;17.866;2023-07-30T04:32:05;100051.50;;;18.09;62.58
19795;BME280;10057;59.402;17.866;2023-07-30T04:34:32;100056.72;;;18.10;62.51
19795;BME280;10057;59.402;17.866;2023-07-30T04:36:58;100057.47;;;18.12;62.69
19795;BME280;10057;59.402;17.866;2023-07-30T04:39:25;100056.50;;;18.13;62.72
19795;BME280;10057;59.402;17.866;2023-07-30T04:41:52;100052.81;;;18.14;62.65
19795;BME280;10057;59.402;17.866;2023-07-30T04:44:19;100056.13;;;18.18;62.72
19795;BME280;10057;59.402;17.866;2023-07-30T04:46:45;100049.41;;;18.23;62.80
19795;BME280;10057;59.402;17.866;2023-07-30T04:49:12;100050.16;;;18.26;62.64
19795;BME280;10057;59.402;17.866;2023-07-30T04:51:39;100054.31;;;18.30;62.82
19795;BME280;10057;59.402;17.866;2023-07-30T04:54:06;100056.84;;;18.31;62.78
19795;BME280;10057;59.402;17.866;2023-07-30T04:56:33;100049.41;;;18.35;62.79
19795;BME280;10057;59.402;17.866;2023-07-30T04:59:01;100054.28;;;18.41;62.53
19795;BME280;10057;59.402;17.866;2023-07-30T05:01:28;100050.50;;;18.43;62.77
19795;BME280;10057;59.402;17.866;2023-07-30T05:03:55;100049.66;;;18.43;62.83
19795;BME280;10057;59.402;17.866;2023-07-30T05:06:22;100050.97;;;18.48;62.96
19795;BME280;10057;59.402;17.866;2023-07-30T05:08:49;100053.41;;;18.52;62.99
19795;BME280;10057;59.402;17.866;2023-07-30T05:11:16;100050.47;;;18.55;62.90
19795;BME280;10057;59.402;17.866;2023-07-30T05:13:43;100048.53;;;18.57;63.04
19795;BME280;10057;59.402;17.866;2023-07-30T05:16:10;100048.28;;;18.60;62.93
19795;BME280;10057;59.402;17.866;2023-07-30T05:18:37;100050.00;;;18.61;62.74
19795;BME280;10057;59.402;17.866;2023-07-30T05:21:04;100045.22;;;18.64;63.18
19795;BME280;10057;59.402;17.866;2023-07-30T05:23:30;100044.13;;;18.67;63.14
19795;BME280;10057;59.402;17.866;2023-07-30T05:25:57;100043.25;;;18.66;63.13
19795;BME280;10057;59.402;17.866;2023-07-30T05:28:24;100037.63;;;18.69;63.03
19795;BME280;10057;59.402;17.866;2023-07-30T05:30:51;100044.63;;;18.72;62.90
19795;BME280;10057;59.402;17.866;2023-07-30T05:33:17;100045.47;;;18.73;62.92
19795;BME280;10057;59.402;17.866;2023-07-30T05:35:44;100043.63;;;18.73;62.98
19795;BME280;10057;59.402;17.866;2023-07-30T05:38:12;100035.56;;;18.73;63.10
19795;BME280;10057;59.402;17.866;2023-07-30T05:40:38;100042.41;;;18.77;63.31
19795;BME280;10057;59.402;17.866;2023-07-30T05:43:05;100034.34;;;18.77;63.25
19795;BME280;10057;59.402;17.866;2023-07-30T05:45:33;100034.34;;;18.77;63.58
19795;BME280;10057;59.402;17.866;2023-07-30T05:48:00;100036.50;;;18.83;63.53
19795;BME280;10057;59.402;17.866;2023-07-30T05:50:27;100031.72;;;18.87;63.70
19795;BME280;10057;59.402;17.866;2023-07-30T05:52:54;100037.00;;;18.88;63.65
19795;BME280;10057;59.402;17.866;2023-07-30T05:55:20;100037.72;;;18.90;63.61
19795;BME280;10057;59.402;17.866;2023-07-30T05:57:47;100026.97;;;18.90;63.57
19795;BME280;10057;59.402;17.866;2023-07-30T06:00:14;100031.97;;;18.95;63.64
19795;BME280;10057;59.402;17.866;2023-07-30T06:02:41;100037.94;;;18.99;63.48
19795;BME280;10057;59.402;17.866;2023-07-30T06:05:07;100041.22;;;19.02;63.61
19795;BME280;10057;59.402;17.866;2023-07-30T06:07:34;100034.84;;;19.03;63.54
19795;BME280;10057;59.402;17.866;2023-07-30T06:10:01;100040.81;;;19.07;63.49
19795;BME280;10057;59.402;17.866;2023-07-30T06:12:28;100037.19;;;19.08;63.42
19795;BME280;10057;59.402;17.866;2023-07-30T06:14:54;100042.75;;;19.16;63.85
19795;BME280;10057;59.402;17.866;2023-07-30T06:17:21;100043.50;;;19.18;63.89
19795;BME280;10057;59.402;17.866;2023-07-30T06:19:48;100035.88;;;19.23;63.89
19795;BME280;10057;59.402;17.866;2023-07-30T06:22:15;100036.63;;;19.25;64.19
19795;BME280;10057;59.402;17.866;2023-07-30T06:24:41;100038.75;;;19.31;64.28
19795;BME280;10057;59.402;17.866;2023-07-30T06:27:08;100038.50;;;19.34;64.22
19795;BME280;10057;59.402;17.866;2023-07-30T06:29:36;100038.38;;;19.36;64.18
19795;BME280;10057;59.402;17.866;2023-07-30T06:32:03;100032.16;;;19.35;64.47
19795;BME280;10057;59.402;17.866;2023-07-30T06:34:30;100035.44;;;19.39;64.38
19795;BME280;10057;59.402;17.866;2023-07-30T06:36:56;100031.75;;;19.40;64.53
19795;BME280;10057;59.402;17.866;2023-07-30T06:39:23;100040.56;;;19.42;64.42
19795;BME280;10057;59.402;17.866;2023-07-30T06:41:50;100039.69;;;19.41;64.07
19795;BME280;10057;59.402;17.866;2023-07-30T06:44:16;100037.00;;;19.41;64.45
19795;BME280;10057;59.402;17.866;2023-07-30T06:46:43;100038.72;;;19.42;64.88
19795;BME280;10057;59.402;17.866;2023-07-30T06:49:10;100040.28;;;19.45;65.33
19795;BME280;10057;59.402;17.866;2023-07-30T06:51:37;100038.19;;;19.49;65.33
19795;BME280;10057;59.402;17.866;2023-07-30T06:54:04;100033.78;;;19.48;65.48
19795;BME280;10057;59.402;17.866;2023-07-30T06:56:31;100041.59;;;19.51;65.10
19795;BME280;10057;59.402;17.866;2023-07-30T06:58:58;100038.78;;;19.52;65.37
19795;BME280;10057;59.402;17.866;2023-07-30T07:01:25;100042.19;;;19.54;65.58
19795;BME280;10057;59.402;17.866;2023-07-30T07:03:51;100046.56;;;19.55;65.82
19795;BME280;10057;59.402;17.866;2023-07-30T07:06:18;100046.31;;;19.58;66.52
19795;BME280;10057;59.402;17.866;2023-07-30T07:08:45;100042.50;;;19.61;66.80
19795;BME280;10057;59.402;17.866;2023-07-30T07:11:12;100047.66;;;19.64;66.44
19795;BME280;10057;59.402;17.866;2023-07-30T07:13:39;100049.50;;;19.63;66.45
19795;BME280;10057;59.402;17.866;2023-07-30T07:16:05;100051.09;;;19.66;67.01
19795;BME280;10057;59.402;17.866;2023-07-30T07:18:32;100044.56;;;19.69;66.85
19795;BME280;10057;59.402;17.866;2023-07-30T07:20:59;100040.03;;;19.69;66.94
19795;BME280;10057;59.402;17.866;2023-07-30T07:23:26;100050.53;;;19.72;67.21
19795;BME280;10057;59.402;17.866;2023-07-30T07:25:53;100039.50;;;19.75;67.08
19795;BME280;10057;59.402;17.866;2023-07-30T07:28:19;100040.94;;;19.79;67.23
19795;BME280;10057;59.402;17.866;2023-07-30T07:30:46;100039.00;;;19.81;67.27
19795;BME280;10057;59.402;17.866;2023-07-30T07:33:14;100034.59;;;19.80;67.03
19795;BME280;10057;59.402;17.866;2023-07-30T07:35:41;100037.16;;;19.82;66.59
19795;BME280;10057;59.402;17.866;2023-07-30T07:38:08;100030.91;;;19.81;66.41
19795;BME280;10057;59.402;17.866;2023-07-30T07:40:38;100033.34;;;19.84;66.43
19795;BME280;10057;59.402;17.866;2023-07-30T07:43:08;100033.19;;;19.86;66.66
19795;BME280;10057;59.402;17.866;2023-07-30T07:45:35;100026.69;;;19.88;66.56
19795;BME280;10057;59.402;17.866;2023-07-30T07:48:02;100028.28;;;19.91;66.63
19795;BME280;10057;59.402;17.866;2023-07-30T07:50:29;100018.09;;;19.95;66.12
19795;BME280;10057;59.402;17.866;2023-07-30T07:52:56;100013.72;;;19.94;65.65
19795;BME280;10057;59.402;17.866;2023-07-30T07:55:22;100016.66;;;19.91;65.08
19795;BME280;10057;59.402;17.866;2023-07-30T07:57:49;100013.38;;;19.87;65.50
19795;BME280;10057;59.402;17.866;2023-07-30T08:00:17;100015.94;;;19.88;65.42
19795;BME280;10057;59.402;17.866;2023-07-30T08:02:45;100011.41;;;19.89;65.30
19795;BME280;10057;59.402;17.866;2023-07-30T08:05:15;100019.34;;;19.91;65.48
19795;BME280;10057;59.402;17.866;2023-07-30T08:07:47;100017.38;;;19.93;65.62
19795;BME280;10057;59.402;17.866;2023-07-30T08:10:14;100010.03;;;19.95;65.53
19795;BME280;10057;59.402;17.866;2023-07-30T08:12:42;100011.44;;;19.99;65.77
19795;BME280;10057;59.402;17.866;2023-07-30T08:15:09;100011.19;;;20.02;65.92
19795;BME280;10057;59.402;17.866;2023-07-30T08:17:36;100015.03;;;20.09;65.81
19795;BME280;10057;59.402;17.866;2023-07-30T08:20:03;100008.38;;;20.13;65.70
19795;BME280;10057;59.402;17.866;2023-07-30T08:22:30;100003.47;;;20.18;65.36
19795;BME280;10057;59.402;17.866;2023-07-30T08:24:57;100002.72;;;20.16;64.82
19795;BME280;10057;59.402;17.866;2023-07-30T08:27:24;100001.88;;;20.16;65.18
19795;BME280;10057;59.402;17.866;2023-07-30T08:29:51;100005.44;;;20.16;64.98
19795;BME280;10057;59.402;17.866;2023-07-30T08:32:17;100004.72;;;20.14;64.79
19795;BME280;10057;59.402;17.866;2023-07-30T08:34:44;99996.50;;;20.16;64.78
19795;BME280;10057;59.402;17.866;2023-07-30T08:37:11;100005.31;;;20.18;64.97
19795;BME280;10057;59.402;17.866;2023-07-30T08:39:38;99989.00;;;20.19;65.01
19795;BME280;10057;59.402;17.866;2023-07-30T08:42:04;99995.81;;;20.23;64.77
19795;BME280;10057;59.402;17.866;2023-07-30T08:44:31;99996.53;;;20.25;64.52
19795;BME280;10057;59.402;17.866;2023-07-30T08:46:58;99989.19;;;20.27;64.57
19795;BME280;10057;59.402;17.866;2023-07-30T08:49:25;99991.56;;;20.30;64.84
19795;BME280;10057;59.402;17.866;2023-07-30T08:51:52;99988.34;;;20.36;64.66
19795;BME280;10057;59.402;17.866;2023-07-30T08:54:20;99987.22;;;20.39;64.48
19795;BME280;10057;59.402;17.866;2023-07-30T08:56:47;99984.38;;;20.41;64.62
19795;BME280;10057;59.402;17.866;2023-07-30T08:59:15;99979.28;;;20.47;64.84
19795;BME280;10057;59.402;17.866;2023-07-30T09:01:44;99982.56;;;20.51;64.62
19795;BME280;10057;59.402;17.866;2023-07-30T09:04:11;99976.75;;;20.46;64.00
19795;BME280;10057;59.402;17.866;2023-07-30T09:06:38;99990.06;;;20.47;64.23
19795;BME280;10057;59.402;17.866;2023-07-30T09:09:05;99987.00;;;20.52;64.01
19795;BME280;10057;59.402;17.866;2023-07-30T09:11:33;99991.81;;;20.58;63.89
19795;BME280;10057;59.402;17.866;2023-07-30T09:14:01;99993.94;;;20.64;64.25
19795;BME280;10057;59.402;17.866;2023-07-30T09:16:28;99987.59;;;20.65;64.33
19795;BME280;10057;59.402;17.866;2023-07-30T09:18:55;99989.97;;;20.68;64.11
19795;BME280;10057;59.402;17.866;2023-07-30T09:21:32;99988.72;;;20.72;64.05
19795;BME280;10057;59.402;17.866;2023-07-30T09:24:04;99987.56;;;20.75;64.18
19795;BME280;10057;59.402;17.866;2023-07-30T09:26:46;99998.06;;;20.78;64.16
19795;BME280;10057;59.402;17.866;2023-07-30T09:29:13;99994.41;;;20.79;64.33
19795;BME280;10057;59.402;17.866;2023-07-30T09:31:50;100003.75;;;20.85;64.24
19795;BME280;10057;59.402;17.866;2023-07-30T09:34:24;99992.97;;;20.85;64.24
19795;BME280;10057;59.402;17.866;2023-07-30T09:36:55;100003.19;;;20.91;64.41
19795;BME280;10057;59.402;17.866;2023-07-30T09:39:24;100000.50;;;20.91;64.19
19795;BME280;10057;59.402;17.866;2023-07-30T09:41:52;99997.94;;;20.99;63.98
19795;BME280;10057;59.402;17.866;2023-07-30T09:44:20;100005.47;;;21.05;63.85
19795;BME280;10057;59.402;17.866;2023-07-30T09:46:49;99989.72;;;21.10;63.47
19795;BME280;10057;59.402;17.866;2023-07-30T09:49:17;100004.47;;;21.16;62.96
19795;BME280;10057;59.402;17.866;2023-07-30T09:51:44;100000.66;;;21.18;62.82
19795;BME280;10057;59.402;17.866;2023-07-30T09:54:12;99994.97;;;21.21;62.51
19795;BME280;10057;59.402;17.866;2023-07-30T09:56:40;100002.06;;;21.22;62.70
19795;BME280;10057;59.402;17.866;2023-07-30T09:59:08;99989.56;;;21.21;62.31
19795;BME280;10057;59.402;17.866;2023-07-30T10:01:46;99998.38;;;21.23;62.55
19795;BME280;10057;59.402;17.866;2023-07-30T10:04:20;100002.63;;;21.26;61.87
19795;BME280;10057;59.402;17.866;2023-07-30T10:07:00;99999.78;;;21.27;61.60
19795;BME280;10057;59.402;17.866;2023-07-30T10:09:30;99995.81;;;21.32;61.30
19795;BME280;10057;59.402;17.866;2023-07-30T10:12:01;99997.25;;;21.36;61.00
19795;BME280;10057;59.402;17.866;2023-07-30T10:14:30;100006.75;;;21.40;60.95
19795;BME280;10057;59.402;17.866;2023-07-30T10:16:59;100003.75;;;21.43;60.92
19795;BME280;10057;59.402;17.866;2023-07-30T10:19:27;100005.50;;;21.44;60.75
19795;BME280;10057;59.402;17.866;2023-07-30T10:22:08;100012.56;;;21.45;60.86
19795;BME280;10057;59.402;17.866;2023-07-30T10:25:03;100008.88;;;21.46;60.85
19795;BME280;10057;59.402;17.866;2023-07-30T10:27:39;100005.16;;;21.47;60.58
19795;BME280;10057;59.402;17.866;2023-07-30T10:33:01;100005.88;;;21.49;60.23
19795;BME280;10057;59.402;17.866;2023-07-30T10:35:42;99995.53;;;21.44;60.09
19795;BME280;10057;59.402;17.866;2023-07-30T10:38:28;99996.69;;;21.42;60.39
19795;BME280;10057;59.402;17.866;2023-07-30T10:41:14;99996.69;;;21.42;60.06
19795;BME280;10057;59.402;17.866;2023-07-30T10:43:51;99995.66;;;21.43;60.41
19795;BME280;10057;59.402;17.866;2023-07-30T10:46:20;100004.75;;;21.42;60.76
19795;BME280;10057;59.402;17.866;2023-07-30T10:48:48;99985.88;;;21.42;60.42
19795;BME280;10057;59.402;17.866;2023-07-30T10:51:17;99987.88;;;21.40;60.41
19795;BME280;10057;59.402;17.866;2023-07-30T10:53:48;99985.03;;;21.41;60.91
19795;BME280;10057;59.402;17.866;2023-07-30T10:56:17;99982.06;;;21.44;60.71
19795;BME280;10057;59.402;17.866;2023-07-30T10:58:49;99986.72;;;21.42;60.78
19795;BME280;10057;59.402;17.866;2023-07-30T11:01:16;99987.28;;;21.46;61.24
19795;BME280;10057;59.402;17.866;2023-07-30T11:03:43;99987.00;;;21.49;60.79
19795;BME280;10057;59.402;17.866;2023-07-30T11:06:10;99991.56;;;21.48;60.98
19795;BME280;10057;59.402;17.866;2023-07-30T11:08:39;99992.41;;;21.49;60.55
19795;BME280;10057;59.402;17.866;2023-07-30T11:11:08;99986.16;;;21.48;60.27
19795;BME280;10057;59.402;17.866;2023-07-30T11:13:39;99984.19;;;21.50;60.09
19795;BME280;10057;59.402;17.866;2023-07-30T11:16:09;99983.84;;;21.53;59.97
19795;BME280;10057;59.402;17.866;2023-07-30T11:18:37;99972.22;;;21.53;59.93
19795;BME280;10057;59.402;17.866;2023-07-30T11:21:04;99977.03;;;21.59;59.86
19795;BME280;10057;59.402;17.866;2023-07-30T11:23:32;99980.00;;;21.66;60.06
19795;BME280;10057;59.402;17.866;2023-07-30T11:26:01;99971.63;;;21.69;59.57
19795;BME280;10057;59.402;17.866;2023-07-30T11:28:31;99968.47;;;21.73;59.27
19795;BME280;10057;59.402;17.866;2023-07-30T11:31:09;99978.38;;;21.83;59.26
19795;BME280;10057;59.402;17.866;2023-07-30T11:33:46;99985.06;;;21.88;58.69
19795;BME280;10057;59.402;17.866;2023-07-30T11:36:24;99984.72;;;21.91;58.24
19795;BME280;10057;59.402;17.866;2023-07-30T11:38:52;99989.16;;;21.92;58.12
19795;BME280;10057;59.402;17.866;2023-07-30T11:41:23;99986.00;;;21.97;57.84
19795;BME280;10057;59.402;17.866;2023-07-30T11:43:50;99982.72;;;22.03;57.37
19795;BME280;10057;59.402;17.866;2023-07-30T11:46:18;99980.56;;;22.07;57.72
19795;BME280;10057;59.402;17.866;2023-07-30T11:48:50;99972.16;;;22.10;57.85
19795;BME280;10057;59.402;17.866;2023-07-30T11:58:59;99981.94;;;22.11;58.63
19795;BME280;10057;59.402;17.866;2023-07-30T12:01:29;99984.25;;;22.06;58.50
19795;BME280;10057;59.402;17.866;2023-07-30T12:03:58;99973.88;;;22.01;58.40
19795;BME280;10057;59.402;17.866;2023-07-30T12:06:47;99974.50;;;21.95;58.30
19795;BME280;10057;59.402;17.866;2023-07-30T12:09:19;99976.50;;;21.93;58.55
19795;BME280;10057;59.402;17.866;2023-07-30T12:11:49;99983.19;;;21.89;57.89
19795;BME280;10057;59.402;17.866;2023-07-30T12:14:16;99978.09;;;21.86;58.06
19795;BME280;10057;59.402;17.866;2023-07-30T12:16:43;99968.44;;;21.83;58.45
19795;BME280;10057;59.402;17.866;2023-07-30T12:19:10;99968.13;;;21.86;58.61
19795;BME280;10057;59.402;17.866;2023-07-30T12:21:37;99968.69;;;21.90;58.14
19795;BME280;10057;59.402;17.866;2023-07-30T12:24:05;99968.41;;;21.93;58.07
19795;BME280;10057;59.402;17.866;2023-07-30T12:26:32;99971.47;;;21.98;58.18
19795;BME280;10057;59.402;17.866;2023-07-30T12:28:58;99989.69;;;21.96;57.82
19795;BME280;10057;59.402;17.866;2023-07-30T12:31:25;99981.59;;;21.96;57.83
19795;BME280;10057;59.402;17.866;2023-07-30T12:33:52;99988.00;;;21.95;57.82
19795;BME280;10057;59.402;17.866;2023-07-30T12:36:19;99991.69;;;21.94;57.78
19795;BME280;10057;59.402;17.866;2023-07-30T12:38:45;99998.22;;;21.91;58.04
19795;BME280;10057;59.402;17.866;2023-07-30T12:41:13;99992.28;;;21.88;57.73
19795;BME280;10057;59.402;17.866;2023-07-30T12:43:39;100003.97;;;21.79;58.00
19795;BME280;10057;59.402;17.866;2023-07-30T12:46:06;100019.88;;;21.82;58.65
19795;BME280;10057;59.402;17.866;2023-07-30T12:48:33;100012.19;;;21.77;58.57
19795;BME280;10057;59.402;17.866;2023-07-30T12:51:00;100014.34;;;21.73;59.16
19795;BME280;10057;59.402;17.866;2023-07-30T12:53:26;100020.03;;;21.70;59.17
19795;BME280;10057;59.402;17.866;2023-07-30T12:55:53;100016.22;;;21.63;59.35
19795;BME280;10057;59.402;17.866;2023-07-30T12:58:20;100013.53;;;21.63;59.44